createdAt,value
2023-02-11T00:03:24.041Z,-2.80
2023-02-11T00:13:26.945Z,-2.97
2023-02-11T00:23:29.415Z,-2.93
2023-02-11T00:33:31.887Z,-2.98
2023-02-11T00:43:35.686Z,-2.96
2023-02-11T00:53:38.744Z,-2.96
2023-02-11T01:03:41.547Z,-3.08
2023-02-11T01:13:44.543Z,-3.10
2023-02-11T01:23:47.119Z,-3.51
2023-02-11T01:33:49.645Z,-3.50
2023-02-11T01:43:52.162Z,-3.62
2023-02-11T01:54:14.483Z,-3.53
2023-02-11T02:04:19.073Z,-3.47
2023-02-11T02:14:21.677Z,-3.55
2023-02-11T02:25:01.164Z,-3.94
2023-02-11T02:35:22.996Z,-3.77
2023-02-11T02:45:25.452Z,-3.73
2023-02-11T02:55:47.229Z,-4.11
2023-02-11T03:06:16.552Z,-4.39
2023-02-11T03:16:23.017Z,-4.31
2023-02-11T03:26:28.575Z,-4.14
2023-02-11T03:36:38.561Z,-4.05
2023-02-11T03:46:48.045Z,-4.04
2023-02-11T03:56:56.979Z,-4.25
2023-02-11T04:06:59.434Z,-4.15
2023-02-11T04:17:02.143Z,-4.04
2023-02-11T04:27:04.793Z,-4.03
2023-02-11T04:37:08.511Z,-3.98
2023-02-11T04:47:13.493Z,-4.35
2023-02-11T04:57:16.016Z,-4.49
2023-02-11T05:07:18.720Z,-4.72
2023-02-11T05:17:21.302Z,-4.76
2023-02-11T05:27:23.799Z,-4.60
2023-02-11T05:37:26.395Z,-4.54
2023-02-11T05:47:29.316Z,-4.37
2023-02-11T05:57:31.755Z,-4.18
2023-02-11T06:07:34.424Z,-4.25
2023-02-11T06:17:37.499Z,-4.17
2023-02-11T06:27:40.562Z,-4.07
2023-02-11T06:37:43.388Z,-3.91
2023-02-11T06:47:45.873Z,-3.61
2023-02-11T06:57:48.443Z,-3.40
2023-02-11T07:07:50.990Z,-2.69
2023-02-11T07:17:53.626Z,-2.40
2023-02-11T07:27:56.849Z,-1.90
2023-02-11T07:37:59.373Z,-1.77
2023-02-11T07:48:01.955Z,-1.73
2023-02-11T07:58:04.449Z,-1.32
2023-02-11T08:08:07.037Z,-1.07
2023-02-11T08:18:09.554Z,0.07
2023-02-11T08:28:12.079Z,-0.17
2023-02-11T08:38:14.602Z,-0.30
2023-02-11T08:48:17.105Z,0.08
2023-02-11T08:58:20.660Z,1.70
2023-02-11T09:08:24.320Z,1.82
2023-02-11T09:18:28.505Z,1.94
2023-02-11T09:28:30.970Z,2.33
2023-02-11T09:38:33.906Z,2.61
2023-02-11T09:48:42.028Z,3.05
2023-02-11T09:58:45.349Z,2.77
2023-02-11T10:09:06.886Z,4.58
2023-02-11T10:19:35.476Z,5.30
2023-02-11T10:29:46.322Z,4.58
2023-02-11T10:39:48.771Z,4.39
2023-02-11T10:49:52.015Z,5.55
2023-02-11T11:00:00.355Z,10.07
2023-02-11T11:10:25.168Z,8.53
2023-02-11T11:20:30.494Z,7.12
2023-02-11T11:30:42.855Z,6.66
2023-02-11T11:40:45.432Z,7.37
2023-02-11T11:50:53.851Z,6.56
2023-02-11T12:01:05.106Z,6.16
2023-02-11T12:11:22.958Z,6.60
2023-02-11T12:21:52.271Z,6.21
2023-02-11T12:32:08.035Z,6.73
2023-02-11T12:43:09.031Z,8.13
2023-02-11T12:53:37.096Z,8.75
2023-02-11T13:03:45.224Z,11.40
2023-02-11T13:14:11.782Z,10.63
2023-02-11T13:24:20.247Z,8.38
2023-02-11T13:34:47.096Z,7.05
2023-02-11T13:44:50.204Z,6.87
2023-02-11T13:54:54.755Z,6.47
2023-02-11T14:05:24.757Z,6.36
2023-02-11T14:15:27.922Z,6.25
2023-02-11T14:25:31.086Z,6.23
2023-02-11T14:35:39.538Z,5.97
2023-02-11T14:45:51.190Z,5.76
2023-02-11T14:55:55.632Z,5.71
2023-02-11T15:06:18.487Z,5.64
2023-02-11T15:16:24.920Z,5.49
2023-02-11T15:26:29.139Z,5.36
2023-02-11T15:36:34.296Z,5.20
2023-02-11T15:46:39.513Z,5.10
2023-02-11T15:56:45.023Z,4.86
2023-02-11T16:06:48.436Z,4.62
2023-02-11T16:16:54.458Z,4.41
2023-02-11T16:27:02.832Z,4.40
2023-02-11T16:37:06.151Z,4.16
2023-02-11T16:47:20.707Z,4.11
2023-02-11T16:57:26.928Z,3.82
2023-02-11T17:07:31.281Z,3.71
2023-02-11T17:17:33.973Z,3.66
2023-02-11T17:27:36.763Z,3.40
2023-02-11T17:37:39.281Z,3.14
2023-02-11T17:47:42.147Z,2.99
2023-02-11T17:57:44.889Z,2.85
2023-02-11T18:07:48.585Z,2.66
2023-02-11T18:17:51.338Z,2.32
2023-02-11T18:27:56.197Z,2.17
2023-02-11T18:37:58.741Z,2.35
2023-02-11T18:48:03.753Z,2.33
2023-02-11T18:58:07.245Z,2.21
2023-02-11T19:08:09.835Z,2.20
2023-02-11T19:18:14.357Z,2.11
2023-02-11T19:28:17.409Z,2.08
2023-02-11T19:38:23.479Z,2.10
2023-02-11T19:48:27.280Z,2.16
2023-02-11T19:58:30.055Z,2.19
2023-02-11T20:08:33.325Z,2.13
2023-02-11T20:18:36.923Z,2.10
2023-02-11T20:28:39.694Z,2.21
2023-02-11T20:38:43.153Z,2.13
2023-02-11T20:48:46.414Z,2.48
2023-02-11T20:58:50.063Z,2.39
2023-02-11T21:08:54.135Z,2.31
2023-02-11T21:18:57.555Z,2.28
2023-02-11T21:28:59.977Z,2.41
2023-02-11T21:39:04.087Z,2.20
2023-02-11T21:49:07.847Z,2.09
2023-02-11T21:59:14.053Z,2.21
2023-02-11T22:09:17.004Z,2.31
2023-02-11T22:19:19.603Z,3.70
2023-02-11T22:29:22.347Z,3.84
2023-02-11T22:39:25.295Z,4.50
2023-02-11T22:49:29.026Z,5.37
2023-02-11T22:59:31.507Z,6.41
2023-02-11T23:09:34.059Z,6.52
2023-02-11T23:19:36.838Z,6.69
2023-02-11T23:29:39.413Z,6.77
2023-02-11T23:39:41.925Z,6.76
2023-02-11T23:49:44.564Z,6.52
2023-02-11T23:59:49.781Z,6.37
